Time;durP1;ratioP1;P1;durP2;ratioP2;P2;SDS_P1;SDS_P2;PMS_P1;PMS_P2;Temp;Humidity;BMP_temperature;BMP_pressure;BME280_temperature;BME280_humidity;BME280_pressure;Samples;Min_cycle;Max_cycle;Signal;HPM_P1;HPM_P2
2023/12/14 00:00:18;;;;;;;183.37;69.30;;;;;;;-141.97;nan;46596.63;4915903;29;20174;-89
2023/12/14 00:02:43;;;;;;;184.30;70.10;;;;;;;-141.97;nan;46179.69;4912869;29;20196;-88
2023/12/14 00:05:09;;;;;;;180.50;69.37;;;;;;;-141.97;nan;46189.28;4899070;29;20876;-87
2023/12/14 00:07:34;;;;;;;208.07;75.17;;;;;;;-141.97;nan;46577.41;4898841;29;20236;-88
2023/12/14 00:09:59;;;;;;;200.73;73.70;;;;;;;-141.97;nan;46573.56;4899111;29;20482;-89
2023/12/14 00:12:25;;;;;;;230.10;86.53;;;;;;;-141.97;nan;46127.81;4898665;29;20250;-88
2023/12/14 00:14:50;;;;;;;196.20;76.73;;;;;;;-141.97;nan;46302.66;4896810;29;20170;-89
2023/12/14 00:17:16;;;;;;;178.73;70.40;;;;;;;-141.97;nan;46546.66;4898248;29;20171;-89
2023/12/14 00:19:42;;;;;;;182.10;71.63;;;;;;;-141.97;nan;46283.44;4897262;29;20687;-88
2023/12/14 00:22:08;;;;;;;185.60;72.27;;;;;;;-141.97;nan;46565.88;4897258;29;20277;-88
2023/12/14 00:24:33;;;;;;;167.37;67.90;;;;;;;-141.97;nan;46099.00;4897026;29;20936;-89
2023/12/14 00:26:58;;;;;;;182.50;69.10;;;;;;;-141.97;nan;46283.44;4896771;29;20257;-87
2023/12/14 00:29:24;;;;;;;168.03;65.50;;;;;;;-141.97;nan;46243.09;4897540;29;20170;-87
2023/12/14 00:31:49;;;;;;;174.40;67.37;;;;;;;-141.97;nan;46504.38;4896001;29;20237;-87
2023/12/14 00:34:15;;;;;;;176.63;66.47;;;;;;;-141.97;nan;46723.44;4897896;29;20618;-87
2023/12/14 00:36:40;;;;;;;181.93;72.63;;;;;;;-141.97;nan;46677.31;4896674;29;20179;-88
2023/12/14 00:39:05;;;;;;;169.17;67.50;;;;;;;-141.97;nan;46248.84;4896804;29;20567;-88
2023/12/14 00:41:31;;;;;;;193.57;74.03;;;;;;;-141.97;nan;46118.19;4895803;29;20206;-87
2023/12/14 00:43:56;;;;;;;177.27;70.73;;;;;;;-141.97;nan;46623.53;4897509;29;20234;-90
2023/12/14 00:46:22;;;;;;;182.83;72.70;;;;;;;-141.97;nan;46406.41;4897059;29;20257;-89
2023/12/14 00:48:47;;;;;;;170.73;67.47;;;;;;;-141.97;nan;46204.66;4898038;29;20171;-88
2023/12/14 00:51:12;;;;;;;173.03;70.40;;;;;;;-141.97;nan;46343.00;4897541;29;20182;-87
2023/12/14 00:53:38;;;;;;;173.47;66.80;;;;;;;-141.97;nan;46688.84;4897666;29;20174;-88
2023/12/14 00:56:03;;;;;;;166.90;64.13;;;;;;;-141.97;nan;46181.59;4896965;29;20179;-87
2023/12/14 00:58:29;;;;;;;168.97;64.90;;;;;;;-141.97;nan;46225.78;4897476;29;20179;-88
2023/12/14 01:00:54;;;;;;;149.30;60.93;;;;;;;-141.97;nan;46291.13;4896754;29;20255;-88
2023/12/14 01:03:20;;;;;;;145.07;60.60;;;;;;;-141.97;nan;46304.56;4895404;29;20529;-89
2023/12/14 01:05:46;;;;;;;150.27;58.83;;;;;;;-141.97;nan;46139.34;4896543;29;20226;-88
2023/12/14 01:08:11;;;;;;;151.60;59.67;;;;;;;-141.97;nan;46014.44;4898086;29;20418;-89
2023/12/14 01:10:37;;;;;;;148.50;58.30;;;;;;;-141.97;nan;46300.72;4911533;29;20251;-87
2023/12/14 01:13:02;;;;;;;151.87;59.87;;;;;;;-141.97;nan;46010.63;4920026;29;20218;-88
2023/12/14 01:15:28;;;;;;;145.27;57.83;;;;;;;-141.97;nan;46665.78;4920338;29;20298;-89
2023/12/14 01:17:54;;;;;;;140.33;57.43;;;;;;;-141.97;nan;46062.47;4919779;29;20182;-86
2023/12/14 01:20:19;;;;;;;153.80;58.10;;;;;;;-141.97;nan;46558.19;4920297;29;20411;-89
2023/12/14 01:22:45;;;;;;;166.23;56.23;;;;;;;-141.97;nan;46210.41;4908789;29;20189;-87
2023/12/14 01:25:10;;;;;;;157.97;57.97;;;;;;;-141.97;nan;46131.66;4896289;29;20277;-88
2023/12/14 01:27:35;;;;;;;165.23;58.63;;;;;;;-141.97;nan;46212.34;4897144;29;20202;-88
2023/12/14 01:30:01;;;;;;;154.63;58.17;;;;;;;-141.97;nan;46558.19;4895253;29;20620;-88
2023/12/14 01:32:26;;;;;;;148.60;59.20;;;;;;;-141.97;nan;46281.50;4897702;29;20182;-87
2023/12/14 01:34:51;;;;;;;145.90;60.17;;;;;;;-141.97;nan;46271.91;4897086;29;20261;-87
2023/12/14 01:37:17;;;;;;;150.67;60.40;;;;;;;-141.97;nan;46704.22;4894836;29;20193;-88
2023/12/14 01:39:42;;;;;;;147.67;58.50;;;;;;;-141.97;nan;46373.72;4896433;29;20232;-87
2023/12/14 01:42:08;;;;;;;144.67;59.20;;;;;;;-141.97;nan;46646.59;4896180;29;20246;-88
2023/12/14 01:44:33;;;;;;;166.37;60.73;;;;;;;-141.97;nan;46122.03;4896802;29;20238;-89
2023/12/14 01:46:58;;;;;;;174.40;62.07;;;;;;;-141.97;nan;46235.41;4896338;29;20198;-89
2023/12/14 01:49:24;;;;;;;179.13;63.53;;;;;;;-141.97;nan;46089.38;4894984;29;20171;-89
2023/12/14 01:51:49;;;;;;;191.37;64.83;;;;;;;-141.97;nan;46133.56;4894770;29;20186;-88
2023/12/14 01:54:15;;;;;;;190.00;67.07;;;;;;;-141.97;nan;46621.59;4895232;29;20221;-88
2023/12/14 01:56:40;;;;;;;176.33;63.10;;;;;;;-141.97;nan;46231.56;4895085;29;20269;-89
2023/12/14 01:59:06;;;;;;;177.67;60.87;;;;;;;-141.97;nan;46696.53;4895019;29;20241;-89
2023/12/14 02:01:45;;;;;;;144.80;55.00;;;;;;;-141.97;nan;46300.72;4895753;29;20179;-89
2023/12/14 02:04:11;;;;;;;138.07;55.47;;;;;;;-141.97;nan;46260.38;4894435;29;20568;-88
2023/12/14 02:06:37;;;;;;;141.83;56.13;;;;;;;-141.97;nan;46033.66;4910022;29;20988;-89
2023/12/14 02:09:03;;;;;;;142.07;56.57;;;;;;;-141.97;nan;46156.63;4895676;29;20439;-90
2023/12/14 02:11:29;;;;;;;140.87;55.70;;;;;;;-141.97;nan;46085.53;4895482;29;20251;-89
2023/12/14 02:13:54;;;;;;;138.03;57.00;;;;;;;-141.97;nan;46050.97;4894838;29;20467;-90
2023/12/14 02:16:20;;;;;;;149.00;59.23;;;;;;;-141.97;nan;46031.75;4894833;29;20179;-89
2023/12/14 02:18:45;;;;;;;142.50;53.13;;;;;;;-141.97;nan;46698.47;4897186;29;20167;-89
2023/12/14 02:21:11;;;;;;;138.43;56.53;;;;;;;-141.97;nan;46329.53;4895732;29;20183;-89
2023/12/14 02:23:46;;;;;;;146.47;58.77;;;;;;;-141.97;nan;46083.63;4896303;29;20171;-89
2023/12/14 02:26:14;;;;;;;136.00;56.40;;;;;;;-141.97;nan;46638.91;4896102;29;20535;-89
2023/12/14 02:28:40;;;;;;;132.77;52.70;;;;;;;-141.97;nan;46093.22;4895700;29;20790;-89
2023/12/14 02:31:06;;;;;;;140.37;55.13;;;;;;;-141.97;nan;46287.28;4895410;29;20499;-89
2023/12/14 02:33:32;;;;;;;138.77;53.63;;;;;;;-141.97;nan;46304.56;4896277;29;20443;-88
2023/12/14 02:35:57;;;;;;;138.80;57.43;;;;;;;-141.97;nan;46077.84;4897870;29;20555;-89
2023/12/14 02:38:23;;;;;;;147.10;57.43;;;;;;;-141.97;nan;46097.06;4897303;29;20707;-89
2023/12/14 02:40:50;;;;;;;155.33;61.60;;;;;;;-141.97;nan;46610.06;4916989;29;20658;-88
2023/12/14 02:43:16;;;;;;;159.07;58.70;;;;;;;-141.97;nan;46139.34;4900633;29;20243;-90
2023/12/14 02:45:41;;;;;;;139.33;57.43;;;;;;;-141.97;nan;46727.28;4901734;29;20431;-88
2023/12/14 02:48:07;;;;;;;146.10;57.23;;;;;;;-141.97;nan;46196.97;4901958;29;20225;-88
2023/12/14 02:50:33;;;;;;;118.50;47.87;;;;;;;-141.97;nan;46700.38;4919682;29;20206;-89
2023/12/14 02:52:58;;;;;;;137.87;51.13;;;;;;;-141.97;nan;46193.13;4920055;29;20166;-90
2023/12/14 02:55:24;;;;;;;140.73;55.83;;;;;;;-141.97;nan;46083.63;4903249;29;20186;-89
2023/12/14 02:57:49;;;;;;;136.40;54.87;;;;;;;-141.97;nan;46225.78;4903776;29;20193;-90
2023/12/14 03:00:15;;;;;;;129.53;51.33;;;;;;;-141.97;nan;46669.63;4903492;29;20190;-88
2023/12/14 03:02:40;;;;;;;138.27;55.60;;;;;;;-141.97;nan;46731.13;4904608;29;20178;-89
2023/12/14 03:05:06;;;;;;;133.57;54.13;;;;;;;-141.97;nan;46104.75;4921558;29;20195;-89
2023/12/14 03:07:31;;;;;;;130.43;52.00;;;;;;;-141.97;nan;46125.88;4922286;29;20222;-89
2023/12/14 03:09:56;;;;;;;125.13;51.10;;;;;;;-141.97;nan;46181.59;4932445;29;20170;-88
2023/12/14 03:12:22;;;;;;;123.80;50.60;;;;;;;-141.97;nan;46686.94;4921752;29;20190;-89
2023/12/14 03:14:47;;;;;;;123.70;49.70;;;;;;;-141.97;nan;46498.63;4921218;29;20197;-89
2023/12/14 03:17:13;;;;;;;131.47;51.60;;;;;;;-141.97;nan;46523.59;4906603;29;20171;-90
2023/12/14 03:19:40;;;;;;;115.47;44.63;;;;;;;-141.97;nan;46097.06;4907168;29;20163;-88
2023/12/14 03:22:06;;;;;;;118.97;47.50;;;;;;;-141.97;nan;46070.16;4906070;29;20171;-89
2023/12/14 03:24:31;;;;;;;110.87;46.43;;;;;;;-141.97;nan;46633.13;4920584;29;20530;-89
2023/12/14 03:26:57;;;;;;;111.93;45.37;;;;;;;-141.97;nan;46452.50;4904250;29;20227;-90
2023/12/14 03:29:22;;;;;;;109.17;45.37;;;;;;;-141.97;nan;46158.53;4903346;29;20776;-89
2023/12/14 03:31:48;;;;;;;118.77;44.90;;;;;;;-141.97;nan;46020.22;4908765;29;20175;-89
2023/12/14 03:34:13;;;;;;;121.23;47.50;;;;;;;-141.97;nan;46289.19;4905256;29;20185;-89
2023/12/14 03:36:39;;;;;;;117.23;48.10;;;;;;;-141.97;nan;46669.63;4909429;29;20163;-90
2023/12/14 03:39:04;;;;;;;116.63;46.53;;;;;;;-141.97;nan;46123.97;4911787;29;20202;-87
2023/12/14 03:41:30;;;;;;;119.03;48.17;;;;;;;-141.97;nan;46631.22;4899326;29;20174;-88
2023/12/14 03:43:55;;;;;;;128.97;50.10;;;;;;;-141.97;nan;46204.66;4899741;29;20246;-87
2023/12/14 03:46:20;;;;;;;119.50;47.70;;;;;;;-141.97;nan;46318.00;4900459;29;20238;-89
2023/12/14 03:48:46;;;;;;;119.10;48.33;;;;;;;-141.97;nan;46608.16;4898973;29;20270;-88
2023/12/14 03:51:11;;;;;;;113.60;47.63;;;;;;;-141.97;nan;46677.31;4913695;29;20206;-87
2023/12/14 03:53:37;;;;;;;117.87;49.30;;;;;;;-141.97;nan;46208.50;4898672;29;20178;-87
2023/12/14 03:56:03;;;;;;;122.97;48.53;;;;;;;-141.97;nan;46256.53;4898814;29;20210;-87
2023/12/14 03:58:28;;;;;;;114.27;48.27;;;;;;;-141.97;nan;46168.16;4897912;29;20179;-87
2023/12/14 04:00:54;;;;;;;106.90;45.40;;;;;;;-141.97;nan;46187.38;4898292;29;20468;-87
2023/12/14 04:03:19;;;;;;;115.23;47.07;;;;;;;-141.97;nan;46681.16;4899387;29;20167;-88
2023/12/14 04:05:45;;;;;;;111.93;47.80;;;;;;;-141.97;nan;46227.72;4898955;29;20170;-88
2023/12/14 04:08:10;;;;;;;111.03;42.37;;;;;;;-141.97;nan;46527.44;4898841;29;20679;-88
2023/12/14 04:10:36;;;;;;;104.47;46.23;;;;;;;-141.97;nan;46289.19;4897882;29;20189;-88
2023/12/14 04:13:01;;;;;;;130.27;53.33;;;;;;;-141.97;nan;46335.31;4898618;29;20230;-88
2023/12/14 04:15:27;;;;;;;281.33;102.00;;;;;;;-141.97;nan;46208.50;4897262;29;20167;-88
2023/12/14 04:17:52;;;;;;;282.67;101.50;;;;;;;-141.97;nan;46193.13;4896632;29;20683;-87
2023/12/14 04:20:18;;;;;;;197.70;72.07;;;;;;;-141.97;nan;46596.63;4896754;29;20273;-88
2023/12/14 04:22:44;;;;;;;185.17;69.87;;;;;;;-141.97;nan;46120.13;4896136;29;20179;-88
2023/12/14 04:25:10;;;;;;;122.43;48.77;;;;;;;-141.97;nan;46047.13;4897440;29;20171;-88
2023/12/14 04:27:35;;;;;;;132.63;54.10;;;;;;;-141.97;nan;46239.25;4895662;29;20533;-87
2023/12/14 04:30:01;;;;;;;128.60;52.30;;;;;;;-141.97;nan;46147.03;4896092;29;20234;-87
2023/12/14 04:32:26;;;;;;;118.40;48.80;;;;;;;-141.97;nan;46579.31;4896990;29;20269;-88
2023/12/14 04:34:52;;;;;;;130.27;52.10;;;;;;;-141.97;nan;46621.59;4914923;29;20675;-88
2023/12/14 04:37:17;;;;;;;114.00;47.17;;;;;;;-141.97;nan;46112.44;4914521;29;20346;-88
2023/12/14 04:39:43;;;;;;;114.50;46.73;;;;;;;-141.97;nan;46296.88;4930632;29;20707;-88
2023/12/14 04:42:08;;;;;;;116.33;46.73;;;;;;;-141.97;nan;46665.78;4913771;29;20327;-89
2023/12/14 04:44:34;;;;;;;114.90;46.20;;;;;;;-141.97;nan;46331.47;4914458;29;20225;-87
2023/12/14 04:46:59;;;;;;;115.47;47.13;;;;;;;-141.97;nan;46756.13;4914371;29;20202;-88
2023/12/14 04:49:24;;;;;;;113.13;47.90;;;;;;;-141.97;nan;46002.94;4914798;29;20627;-86
2023/12/14 04:51:50;;;;;;;114.37;45.77;;;;;;;-141.97;nan;46494.78;4916820;29;20174;-86
2023/12/14 04:54:15;;;;;;;112.13;45.57;;;;;;;-141.97;nan;46335.31;4916446;29;20238;-87
2023/12/14 04:56:41;;;;;;;119.13;49.50;;;;;;;-141.97;nan;46323.78;4916118;29;20170;-87
2023/12/14 04:59:07;;;;;;;89.87;37.53;;;;;;;-141.97;nan;46316.09;4930181;29;20250;-88
2023/12/14 05:01:32;;;;;;;103.20;41.17;;;;;;;-141.97;nan;46717.69;4915811;29;20418;-87
2023/12/14 05:03:58;;;;;;;90.93;40.07;;;;;;;-141.97;nan;46565.88;4914016;29;20628;-88
2023/12/14 05:06:23;;;;;;;92.07;36.57;;;;;;;-141.97;nan;46235.41;4914248;29;20300;-88
2023/12/14 05:08:48;;;;;;;108.23;45.17;;;;;;;-141.97;nan;46623.53;4915451;29;20597;-87
2023/12/14 05:11:14;;;;;;;96.23;42.30;;;;;;;-141.97;nan;46002.94;4915432;29;20269;-88
2023/12/14 05:13:40;;;;;;;102.57;45.30;;;;;;;-141.97;nan;46212.34;4915853;29;20202;-87
2023/12/14 05:16:06;;;;;;;97.97;40.37;;;;;;;-141.97;nan;46321.84;4916208;29;20182;-87
2023/12/14 05:18:32;;;;;;;93.47;39.93;;;;;;;-141.97;nan;46166.22;4916098;29;20430;-87
2023/12/14 05:20:59;;;;;;;92.33;38.93;;;;;;;-141.97;nan;46310.31;4915972;29;20411;-87
2023/12/14 05:23:25;;;;;;;102.43;43.83;;;;;;;-141.97;nan;46327.63;4916123;29;20182;-88
2023/12/14 05:25:50;;;;;;;182.53;70.93;;;;;;;-141.97;nan;46252.69;4929876;29;20418;-89
2023/12/14 05:28:16;;;;;;;125.10;51.50;;;;;;;-141.97;nan;46269.97;4935821;29;20301;-87
2023/12/14 05:30:41;;;;;;;124.43;49.97;;;;;;;-141.97;nan;46162.38;4937930;29;20170;-88
2023/12/14 05:33:07;;;;;;;127.33;53.73;;;;;;;-141.97;nan;46615.84;4935907;29;20243;-88
2023/12/14 05:35:32;;;;;;;202.07;93.50;;;;;;;-141.97;nan;46319.94;4938273;29;20166;-89
2023/12/14 05:37:58;;;;;;;187.63;86.03;;;;;;;-141.97;nan;46106.66;4930417;29;20562;-88
2023/12/14 05:40:23;;;;;;;128.10;53.00;;;;;;;-141.97;nan;46352.59;4916133;29;20201;-88
2023/12/14 05:42:49;;;;;;;172.73;72.93;;;;;;;-141.97;nan;46154.69;4915668;29;20186;-89
2023/12/14 05:45:14;;;;;;;134.83;55.53;;;;;;;-141.97;nan;46325.69;4915421;29;20174;-88
2023/12/14 05:47:41;;;;;;;116.83;47.50;;;;;;;-141.97;nan;46218.09;4914969;29;20677;-88
2023/12/14 05:50:09;;;;;;;112.47;46.50;;;;;;;-141.97;nan;46195.06;4917043;29;20221;-90
2023/12/14 05:52:34;;;;;;;121.70;51.83;;;;;;;-141.97;nan;46223.88;4915608;29;20418;-88
2023/12/14 05:55:00;;;;;;;132.73;55.70;;;;;;;-141.97;nan;46352.59;4915604;29;20441;-90
2023/12/14 05:57:25;;;;;;;146.63;62.10;;;;;;;-141.97;nan;46281.50;4917245;29;20253;-89
2023/12/14 05:59:51;;;;;;;247.63;100.23;;;;;;;-141.97;nan;46319.94;4921245;29;20170;-90
2023/12/14 06:02:16;;;;;;;214.13;80.97;;;;;;;-141.97;nan;46193.13;4919635;29;20203;-88
2023/12/14 06:04:42;;;;;;;186.80;80.03;;;;;;;-141.97;nan;46162.38;4914918;29;20170;-90
2023/12/14 06:07:07;;;;;;;260.17;99.40;;;;;;;-141.97;nan;46733.06;4914059;29;20751;-89
2023/12/14 06:09:35;;;;;;;263.80;106.87;;;;;;;-141.97;nan;46704.22;4915678;29;20170;-90
2023/12/14 06:12:02;;;;;;;262.37;109.70;;;;;;;-141.97;nan;46481.34;4919569;29;20170;-91
2023/12/14 06:14:28;;;;;;;286.33;124.87;;;;;;;-141.97;nan;46223.88;4917016;29;20781;-89
2023/12/14 06:16:53;;;;;;;230.47;99.50;;;;;;;-141.97;nan;46099.00;4919595;29;20473;-91
2023/12/14 06:19:19;;;;;;;131.83;52.50;;;;;;;-141.97;nan;46116.28;4922158;29;20174;-90
2023/12/14 06:21:45;;;;;;;152.87;59.67;;;;;;;-141.97;nan;46500.56;4919188;29;20645;-88
2023/12/14 06:24:10;;;;;;;246.80;95.83;;;;;;;-141.97;nan;46341.06;4926062;29;20200;-88
2023/12/14 06:26:41;;;;;;;261.57;99.80;;;;;;;-141.97;nan;46275.75;4919802;29;20201;-87
2023/12/14 06:29:07;;;;;;;192.00;75.60;;;;;;;-141.97;nan;46083.63;4914114;29;20229;-89
2023/12/14 06:31:32;;;;;;;175.33;69.00;;;;;;;-141.97;nan;46654.28;4914350;29;20991;-89
2023/12/14 06:34:00;;;;;;;208.33;91.53;;;;;;;-141.97;nan;46319.94;4913085;29;20177;-88
2023/12/14 06:36:29;;;;;;;228.43;88.77;;;;;;;-141.97;nan;46736.91;4914868;29;20165;-88
2023/12/14 06:38:54;;;;;;;316.20;110.13;;;;;;;-141.97;nan;46200.81;4917262;29;20417;-88
2023/12/14 06:41:23;;;;;;;273.67;103.47;;;;;;;-141.97;nan;46147.03;4918907;29;20413;-88
2023/12/14 06:43:49;;;;;;;327.47;115.03;;;;;;;-141.97;nan;46293.03;4918142;29;20233;-88
2023/12/14 06:46:15;;;;;;;253.27;100.83;;;;;;;-141.97;nan;46316.09;4916645;29;20414;-89
2023/12/14 06:48:41;;;;;;;247.93;104.00;;;;;;;-141.97;nan;46635.06;4917945;29;20977;-88
2023/12/14 06:51:07;;;;;;;362.90;134.30;;;;;;;-141.97;nan;46623.53;4918088;29;20550;-87
2023/12/14 06:53:32;;;;;;;209.57;78.30;;;;;;;-141.97;nan;46139.34;4916543;29;20200;-88
2023/12/14 06:55:57;;;;;;;192.73;80.70;;;;;;;-141.97;nan;46266.13;4918451;29;20287;-87
2023/12/14 06:58:23;;;;;;;217.53;89.67;;;;;;;-141.97;nan;46344.91;4917572;29;20170;-88
2023/12/14 07:00:48;;;;;;;242.83;103.73;;;;;;;-141.97;nan;46087.47;4918624;29;20196;-88
2023/12/14 07:03:14;;;;;;;199.10;82.80;;;;;;;-141.97;nan;46158.53;4917655;29;20249;-88
2023/12/14 07:05:39;;;;;;;308.20;129.93;;;;;;;-141.97;nan;46147.03;4919737;29;20261;-88
2023/12/14 07:08:06;;;;;;;180.37;69.83;;;;;;;-141.97;nan;46581.25;4917119;29;20209;-88
2023/12/14 07:10:32;;;;;;;186.67;80.43;;;;;;;-141.97;nan;46312.25;4916031;29;20186;-87
2023/12/14 07:12:57;;;;;;;239.37;101.20;;;;;;;-141.97;nan;46306.50;4917947;29;20811;-89
2023/12/14 07:15:24;;;;;;;228.87;94.10;;;;;;;-141.97;nan;46269.97;4928336;29;20182;-88
2023/12/14 07:17:50;;;;;;;270.27;101.10;;;;;;;-141.97;nan;46233.47;4917042;29;20180;-86
2023/12/14 07:20:15;;;;;;;342.40;128.73;;;;;;;-141.97;nan;46352.59;4919717;29;20417;-87
2023/12/14 07:22:41;;;;;;;341.83;136.03;;;;;;;-141.97;nan;46362.22;4921069;29;20170;-88
2023/12/14 07:25:07;;;;;;;241.97;104.47;;;;;;;-141.97;nan;46177.75;4921396;29;20225;-90
2023/12/14 07:27:36;;;;;;;377.13;129.83;;;;;;;-141.97;nan;46047.13;4924797;29;20194;-90
2023/12/14 07:30:01;;;;;;;284.13;116.83;;;;;;;-141.97;nan;46037.50;4924914;29;20422;-89
2023/12/14 07:32:27;;;;;;;276.57;110.33;;;;;;;-141.97;nan;46277.66;4916787;29;20425;-88
2023/12/14 07:34:52;;;;;;;143.90;60.53;;;;;;;-141.97;nan;46220.03;4915985;29;20174;-82
2023/12/14 07:37:18;;;;;;;150.57;63.23;;;;;;;-141.97;nan;46512.06;4928675;29;20212;-91
2023/12/14 07:39:43;;;;;;;178.67;77.07;;;;;;;-141.97;nan;46116.28;4935267;29;20713;-90
2023/12/14 07:42:09;;;;;;;220.93;92.73;;;;;;;-141.97;nan;46143.19;4951986;29;20177;-90
2023/12/14 07:44:35;;;;;;;159.73;72.73;;;;;;;-141.97;nan;46623.53;4937234;29;20288;-91
2023/12/14 07:47:02;;;;;;;159.33;72.77;;;;;;;-141.97;nan;46066.31;4936962;29;20293;-89
2023/12/14 07:49:27;;;;;;;329.50;140.50;;;;;;;-141.97;nan;46685.00;4937529;29;20413;-90
2023/12/14 07:51:53;;;;;;;230.53;102.10;;;;;;;-141.97;nan;46189.28;4939507;29;20417;-91
2023/12/14 07:54:18;;;;;;;195.63;88.30;;;;;;;-141.97;nan;46189.28;4948383;29;20196;-90
2023/12/14 07:56:44;;;;;;;142.50;66.10;;;;;;;-141.97;nan;46485.19;4934251;29;20218;-93
2023/12/14 07:59:10;;;;;;;138.70;60.77;;;;;;;-141.97;nan;46143.19;4921792;29;20243;-92
2023/12/14 08:01:35;;;;;;;159.57;72.40;;;;;;;-141.97;nan;46204.66;4914462;29;20194;-92
2023/12/14 08:04:01;;;;;;;208.17;90.07;;;;;;;-141.97;nan;46281.50;4914370;29;20328;-92
2023/12/14 08:06:27;;;;;;;259.17;88.07;;;;;;;-141.97;nan;46339.16;4898482;29;20266;-91
2023/12/14 08:08:52;;;;;;;145.27;64.43;;;;;;;-141.97;nan;46175.84;4898857;29;20419;-91
2023/12/14 08:11:18;;;;;;;166.47;75.63;;;;;;;-141.97;nan;46652.34;4898917;29;20584;-91
2023/12/14 08:13:43;;;;;;;117.17;55.00;;;;;;;-141.97;nan;46039.44;4913822;29;20277;-92
2023/12/14 08:16:10;;;;;;;103.13;46.03;;;;;;;-141.97;nan;46596.63;4898325;29;20174;-90
2023/12/14 08:18:36;;;;;;;116.87;52.87;;;;;;;-141.97;nan;46642.75;4897387;29;20203;-91
2023/12/14 08:21:01;;;;;;;97.93;45.43;;;;;;;-141.97;nan;46052.88;4898441;29;20411;-89
2023/12/14 08:23:27;;;;;;;98.77;46.87;;;;;;;-141.97;nan;45976.03;4903314;29;20258;-90
2023/12/14 08:25:56;;;;;;;79.43;38.37;;;;;;;-141.97;nan;46062.47;4898704;29;20167;-88
2023/12/14 08:28:23;;;;;;;74.10;36.80;;;;;;;-141.97;nan;46437.13;4897381;29;20328;-90
2023/12/14 08:30:49;;;;;;;86.73;41.23;;;;;;;-141.97;nan;46147.03;4896729;29;20439;-91
2023/12/14 08:33:14;;;;;;;83.97;40.80;;;;;;;-141.97;nan;46329.53;4896201;29;20411;-88
2023/12/14 08:35:39;;;;;;;61.83;31.60;;;;;;;-141.97;nan;46039.44;4895807;29;20277;-90
2023/12/14 08:38:05;;;;;;;78.93;37.00;;;;;;;-141.97;nan;46077.84;4897823;29;20167;-89
2023/12/14 08:40:31;;;;;;;139.77;59.13;;;;;;;-141.97;nan;46596.63;4911988;29;20632;-90
2023/12/14 08:42:57;;;;;;;119.27;54.30;;;;;;;-141.97;nan;46001.00;4896727;29;20231;-91
2023/12/14 08:45:22;;;;;;;130.07;61.03;;;;;;;-141.97;nan;45983.72;4897632;29;20166;-90
2023/12/14 08:47:48;;;;;;;99.47;49.83;;;;;;;-141.97;nan;45876.13;4897044;29;20198;-90
2023/12/14 08:50:13;;;;;;;86.77;42.73;;;;;;;-141.97;nan;46446.75;4896069;29;20273;-90
2023/12/14 08:52:39;;;;;;;104.97;45.73;;;;;;;-141.97;nan;46200.81;4897704;29;20332;-89
2023/12/14 08:55:05;;;;;;;106.33;49.03;;;;;;;-141.97;nan;46081.69;4896881;29;20193;-89
2023/12/14 08:57:30;;;;;;;71.50;34.93;;;;;;;-141.97;nan;45989.47;4896876;29;20181;-86
2023/12/14 08:59:56;;;;;;;50.23;27.63;;;;;;;-141.97;nan;46123.97;4899996;29;20167;-89
2023/12/14 09:02:22;;;;;;;59.00;29.33;;;;;;;-141.97;nan;45949.13;4901107;29;20178;-87
2023/12/14 09:04:47;;;;;;;81.70;37.63;;;;;;;-141.97;nan;46166.22;4909204;29;20347;-87
2023/12/14 09:07:12;;;;;;;87.27;40.27;;;;;;;-141.97;nan;45997.16;4914856;29;20194;-89
2023/12/14 09:09:38;;;;;;;73.13;36.73;;;;;;;-141.97;nan;46177.75;4914584;29;20610;-89
2023/12/14 09:12:03;;;;;;;59.07;29.53;;;;;;;-141.97;nan;45912.63;4914921;29;20184;-86
2023/12/14 09:14:29;;;;;;;46.33;24.60;;;;;;;-141.97;nan;46062.47;4914311;29;20162;-89
2023/12/14 09:16:55;;;;;;;55.30;30.87;;;;;;;-141.97;nan;46437.13;4913747;29;20177;-87
2023/12/14 09:19:20;;;;;;;47.60;26.17;;;;;;;-141.97;nan;46419.84;4913880;29;20178;-89
2023/12/14 09:21:46;;;;;;;120.17;51.93;;;;;;;-141.97;nan;46189.28;4915419;29;20539;-89
2023/12/14 09:24:11;;;;;;;54.47;28.63;;;;;;;-141.97;nan;46408.31;4915485;29;20569;-89
2023/12/14 09:26:37;;;;;;;52.60;27.77;;;;;;;-141.97;nan;45954.91;4915462;29;20709;-88
2023/12/14 09:29:02;;;;;;;47.47;25.93;;;;;;;-141.97;nan;46133.56;4915596;29;20177;-89
2023/12/14 09:31:28;;;;;;;56.97;28.03;;;;;;;-141.97;nan;45979.88;4914071;29;20480;-89
2023/12/14 09:33:53;;;;;;;50.13;24.97;;;;;;;-141.97;nan;46487.09;4913785;29;20170;-89
2023/12/14 09:36:19;;;;;;;41.87;22.53;;;;;;;-141.97;nan;46494.78;4914997;29;20178;-88
2023/12/14 09:38:45;;;;;;;55.27;30.67;;;;;;;-141.97;nan;46133.56;4914984;29;20174;-90
2023/12/14 09:41:11;;;;;;;65.50;35.50;;;;;;;-141.97;nan;46066.31;4913506;29;20584;-88
2023/12/14 09:43:37;;;;;;;65.30;32.83;;;;;;;-141.97;nan;46450.59;4915149;29;20253;-88
2023/12/14 09:46:04;;;;;;;57.17;29.73;;;;;;;-141.97;nan;46485.19;4913888;29;20178;-87
2023/12/14 09:48:29;;;;;;;40.80;22.77;;;;;;;-141.97;nan;46515.91;4925415;29;20170;-88
2023/12/14 09:50:56;;;;;;;38.83;21.23;;;;;;;-141.97;nan;46141.25;4935637;29;20190;-87
2023/12/14 09:53:21;;;;;;;47.10;25.50;;;;;;;-141.97;nan;45903.03;4938348;29;20220;-90
2023/12/14 09:55:47;;;;;;;44.23;25.07;;;;;;;-141.97;nan;45997.16;4934347;29;20193;-90
2023/12/14 09:58:12;;;;;;;44.50;25.87;;;;;;;-141.97;nan;46035.59;4932714;29;20173;-90
2023/12/14 10:00:40;;;;;;;59.83;28.30;;;;;;;-141.97;nan;46085.53;4948435;29;20174;-89
2023/12/14 10:03:23;;;;;;;50.80;27.93;;;;;;;-141.97;nan;46083.63;4924702;29;20641;-89
2023/12/14 10:05:49;;;;;;;48.17;27.00;;;;;;;-141.97;nan;45985.63;4915690;29;20190;-91
2023/12/14 10:08:16;;;;;;;59.13;29.90;;;;;;;-141.97;nan;46043.28;4914371;29;20226;-88
2023/12/14 10:10:42;;;;;;;55.43;26.97;;;;;;;-141.97;nan;45981.78;4916261;29;20539;-87
2023/12/14 10:13:07;;;;;;;48.10;23.73;;;;;;;-141.97;nan;46025.97;4904720;29;20715;-88
2023/12/14 10:15:46;;;;;;;38.67;22.30;;;;;;;-141.97;nan;46339.16;4896033;29;20171;-88
2023/12/14 10:18:19;;;;;;;39.30;21.70;;;;;;;-141.97;nan;46141.25;4895388;29;20508;-89
2023/12/14 10:20:46;;;;;;;39.87;22.00;;;;;;;-141.97;nan;45912.63;4896254;29;20295;-89
2023/12/14 10:23:13;;;;;;;41.00;20.10;;;;;;;-141.97;nan;45897.25;4894796;29;20639;-87
2023/12/14 10:25:38;;;;;;;40.83;22.00;;;;;;;-141.97;nan;46035.59;4910926;29;20185;-88
2023/12/14 10:28:04;;;;;;;48.40;27.33;;;;;;;-141.97;nan;46442.91;4894663;29;20203;-89
2023/12/14 10:30:30;;;;;;;48.30;26.67;;;;;;;-141.97;nan;46367.97;4895927;29;20174;-88
2023/12/14 10:32:56;;;;;;;39.93;23.10;;;;;;;-141.97;nan;46070.16;4895043;29;20269;-90
2023/12/14 10:35:22;;;;;;;71.70;34.57;;;;;;;-141.97;nan;45868.44;4896449;29;20170;-88
2023/12/14 10:37:50;;;;;;;69.83;34.67;;;;;;;-141.97;nan;45939.53;4894968;29;20586;-87
2023/12/14 10:40:16;;;;;;;62.03;31.93;;;;;;;-141.97;nan;46039.44;4895598;29;20175;-88
2023/12/14 10:42:44;;;;;;;45.03;24.53;;;;;;;-141.97;nan;45789.69;4897658;29;20167;-88
2023/12/14 10:45:16;;;;;;;43.47;23.73;;;;;;;-141.97;nan;45989.47;4898567;29;20245;-86
2023/12/14 10:47:45;;;;;;;42.60;22.10;;;;;;;-141.97;nan;46033.66;4898983;29;20253;-88
2023/12/14 10:50:12;;;;;;;37.93;21.03;;;;;;;-141.97;nan;45985.63;4896375;29;20179;-88
2023/12/14 10:52:41;;;;;;;40.27;24.47;;;;;;;-141.97;nan;46356.44;4895825;29;20202;-87
2023/12/14 10:55:11;;;;;;;40.17;22.87;;;;;;;-141.97;nan;46024.06;4894992;29;20167;-90
2023/12/14 10:57:36;;;;;;;42.97;24.73;;;;;;;-141.97;nan;46235.41;4895002;29;20170;-90
2023/12/14 11:00:08;;;;;;;44.40;25.63;;;;;;;-141.97;nan;46300.72;4896341;29;20175;-90
2023/12/14 11:02:44;;;;;;;43.80;26.23;;;;;;;-141.97;nan;45874.22;4894457;29;20230;-89